Terminal Aerodrome Forecast
Issued by NWS Charleston, WV

Home | Current Version | Previous Version | Text Only | Print | Product List | Glossary On
Versions: 1 2 3 4 5 6 7 8 9 10 11 12 13 14 15 16 17 18 19 20 21 22 23 24 25 26
000
FTUS41 KRLX 051139
TAFEKN
TAF
KEKN 051139Z 0512/0612 00000KT 1SM BR BKN002
     FM051300 00000KT 3SM BR SCT002 SCT150
     FM051400 VRB03KT P6SM SCT150
     FM052000 VRB03KT P6SM BKN070
     FM052200 VRB03KT 6SM SHRA BKN060
     FM060100 00000KT 3SM SHRA BR BKN050=

USA.gov is the U.S. government's official web portal to all federal, state and local government web resources and services.